Airfield :
LOGIN :

Register | Disclaimer

   EN    FR    IT 

 










Legend :    VFR   Marginal VFR   IFR   Intensive IFR   Very Intensive IFR
Visi :
Ceiling :
>= 8 km
>= 3000ft
5 to 8 km
1000 to 3000 ft
1500m to 5 km
500 to 1000 ft
800 to 1500m
200 to 500 ft
< 800m
< 200 ft
Symbols :   Thunderstorms  Fog  Heavy snow  Heavy precipitations  Wind > 20 kt
SIGMETs :     Misc.  Thunderstorms  Icing  Turbulence  Mountain Waves  Volcanic Ashes







- Airport Elevation : 19 ft
- IATA code : LCY
- Download approach charts


EGLC - London City

EXPIRED METARs :
  • 241420Z AUTO 23013KT 9999 SCT029 BKN039 22/15 Q1012
  • 241350Z AUTO 24013KT 210V270 9999 BKN027 BKN032 23/15 Q1013
  • 241320Z AUTO 25013KT 9999 SCT027 SCT032 BKN039 23/15 Q1013
  • 241250Z AUTO 23015KT 9999 FEW029 OVC046 22/14 Q1013
  • 241220Z AUTO 23014KT 9999 FEW049 22/14 Q1013
  • 241150Z AUTO 23013KT 190V260 9999 FEW027 SCT035 BKN043 23/15 Q1013

Expired Forecast.
ATIS : +44 20 7646 0224
No reported NOTAMs for that airfield.



MET'MAP, your aeronautical weather chart ! - Copyright ORBIFLY December 2007 - Disclaimer

ORBIFLY MET'MAP TEAM :

Programming & Development : Alexandra Zaïnal
Concept & Development : Baudouin d'Aumeries
Co-Development & Prog : Marc-Olivier Méhu
Technical & hardware support : Manuel Goepfert

Contact : metmap@orbifly.com




SOURCES & CREDITS :

   NOAA